Time;durP1;ratioP1;P1;durP2;ratioP2;P2;SDS_P1;SDS_P2;PMS_P1;PMS_P2;Temp;Humidity;BMP_temperature;BMP_pressure;BME280_temperature;BME280_humidity;BME280_pressure;Samples;Min_cycle;Max_cycle;Signal;HPM_P1;HPM_P2
2022/03/31 00:00:52;;;;;;;23.67;4.50;;;;;;;14.50;38.22;93786.88;5070849;28;20581;-72
2022/03/31 00:03:19;;;;;;;25.55;4.75;;;;;;;14.44;38.04;93751.00;5042048;28;20033;-72
2022/03/31 00:05:45;;;;;;;28.48;4.88;;;;;;;14.56;37.97;93746.19;5071303;28;20383;-72
2022/03/31 00:08:14;;;;;;;20.92;4.82;;;;;;;14.48;38.42;93748.84;5070936;28;20062;-72
2022/03/31 00:10:40;;;;;;;16.67;4.72;;;;;;;14.52;38.55;93742.34;5070189;28;20033;-72
2022/03/31 00:13:09;;;;;;;21.95;5.25;;;;;;;14.57;38.30;93771.38;5068855;28;20048;-73
2022/03/31 00:15:34;;;;;;;31.42;5.13;;;;;;;14.57;38.36;93766.13;5069204;28;20079;-72
2022/03/31 00:18:00;;;;;;;18.08;4.18;;;;;;;14.64;38.27;93761.81;5069305;28;20406;-73
2022/03/31 00:20:26;;;;;;;23.83;5.18;;;;;;;14.66;37.90;93775.53;5069790;28;20107;-73
2022/03/31 00:22:51;;;;;;;21.17;4.32;;;;;;;14.67;38.06;93779.75;5070531;28;20581;-73
2022/03/31 00:25:17;;;;;;;21.73;4.30;;;;;;;14.64;38.10;93776.69;5070573;28;20048;-73
2022/03/31 00:27:42;;;;;;;24.10;4.38;;;;;;;14.71;38.07;93749.66;5071542;28;20032;-73
2022/03/31 00:30:09;;;;;;;20.02;4.80;;;;;;;14.80;38.20;93773.13;5070619;28;20029;-73
2022/03/31 00:32:35;;;;;;;28.02;5.22;;;;;;;14.78;38.19;93765.44;5071096;28;20028;-73
2022/03/31 00:35:01;;;;;;;20.23;4.50;;;;;;;14.83;38.13;93764.91;5072415;28;20156;-73
2022/03/31 00:37:27;;;;;;;20.05;5.97;;;;;;;14.82;37.84;93768.50;5070325;28;20271;-73
2022/03/31 00:39:53;;;;;;;18.95;4.95;;;;;;;14.85;38.08;93766.38;5067698;28;20518;-73
2022/03/31 00:42:19;;;;;;;18.02;4.30;;;;;;;14.85;38.14;93755.91;5071060;28;20033;-73
2022/03/31 00:44:44;;;;;;;20.15;4.68;;;;;;;14.82;38.31;93751.03;5070387;28;20037;-73
2022/03/31 00:47:10;;;;;;;24.73;4.95;;;;;;;14.81;38.45;93744.16;5040947;28;20418;-74
2022/03/31 00:49:35;;;;;;;25.63;5.07;;;;;;;14.77;38.28;93735.06;5053664;28;20478;-74
2022/03/31 00:52:01;;;;;;;23.13;5.38;;;;;;;14.81;38.78;93752.00;5054166;28;20516;-73
2022/03/31 00:54:26;;;;;;;22.67;5.35;;;;;;;14.79;38.94;93750.56;5048471;28;20025;-74
2022/03/31 00:56:52;;;;;;;29.88;5.28;;;;;;;14.83;38.56;93754.47;5056150;28;20498;-73
2022/03/31 00:59:18;;;;;;;22.67;5.47;;;;;;;14.74;38.74;93745.91;5070347;28;20510;-72
2022/03/31 01:01:44;;;;;;;22.95;4.78;;;;;;;14.77;38.85;93739.50;5045620;28;20194;-74
2022/03/31 01:04:11;;;;;;;21.35;4.70;;;;;;;14.77;39.06;93732.47;5065314;28;20032;-74
2022/03/31 01:06:36;;;;;;;21.67;4.95;;;;;;;14.69;39.33;93724.69;5036029;28;20041;-74
2022/03/31 01:09:03;;;;;;;25.38;4.90;;;;;;;14.68;39.28;93723.91;5058658;28;20090;-74
2022/03/31 01:11:29;;;;;;;21.90;4.70;;;;;;;14.63;39.42;93735.88;5070457;28;20040;-74
2022/03/31 01:13:55;;;;;;;21.77;4.85;;;;;;;14.68;40.12;93743.97;5053681;28;20059;-74
2022/03/31 01:16:20;;;;;;;20.27;4.63;;;;;;;14.71;40.48;93743.63;5052895;28;20025;-74
2022/03/31 01:18:45;;;;;;;23.02;5.28;;;;;;;14.69;40.17;93750.84;5070299;28;20029;-74
2022/03/31 01:21:11;;;;;;;24.55;5.35;;;;;;;14.65;40.65;93728.63;5070186;28;20074;-74
2022/03/31 01:23:36;;;;;;;19.40;4.30;;;;;;;14.64;40.94;93743.53;5049838;28;20044;-74
2022/03/31 01:26:05;;;;;;;25.90;4.32;;;;;;;14.62;40.79;93747.28;5049911;28;20040;-74
2022/03/31 01:28:30;;;;;;;24.08;4.20;;;;;;;14.57;41.30;93742.63;5053800;28;20162;-74
2022/03/31 01:30:56;;;;;;;25.25;5.05;;;;;;;14.54;41.44;93732.50;5053806;28;20041;-75
2022/03/31 01:33:22;;;;;;;22.13;4.75;;;;;;;14.57;41.16;93720.88;5069876;28;20486;-75
2022/03/31 01:35:47;;;;;;;31.27;4.85;;;;;;;14.53;41.44;93707.38;5052966;28;20060;-75
2022/03/31 01:38:13;;;;;;;27.10;5.43;;;;;;;14.57;41.72;93728.72;5071464;28;20025;-75
2022/03/31 01:40:38;;;;;;;31.90;4.85;;;;;;;14.62;41.55;93716.75;5071412;28;20032;-75
2022/03/31 01:43:04;;;;;;;25.63;5.13;;;;;;;14.62;41.52;93721.97;5070976;28;20020;-75
2022/03/31 01:45:29;;;;;;;26.92;5.93;;;;;;;14.62;41.44;93711.50;5071273;28;20044;-75
2022/03/31 01:47:55;;;;;;;28.42;5.20;;;;;;;14.58;41.79;93706.84;5069918;28;20024;-75
2022/03/31 01:50:20;;;;;;;22.17;4.95;;;;;;;14.73;41.42;93710.28;5071091;28;20028;-75
2022/03/31 01:52:46;;;;;;;25.35;4.30;;;;;;;14.73;41.66;93716.31;5070792;28;20089;-75
2022/03/31 01:55:11;;;;;;;22.65;4.53;;;;;;;14.73;41.75;93716.31;5047411;28;20025;-75
2022/03/31 01:57:39;;;;;;;22.73;4.95;;;;;;;14.66;41.80;93717.22;5060837;28;20458;-75
2022/03/31 02:00:06;;;;;;;22.58;4.20;;;;;;;14.72;42.03;93713.88;5069852;28;20036;-75
2022/03/31 02:02:32;;;;;;;25.00;4.38;;;;;;;14.74;42.58;93701.47;5068935;28;20036;-75
2022/03/31 02:04:57;;;;;;;20.88;3.97;;;;;;;14.76;42.45;93689.00;5070984;28;20437;-75
2022/03/31 02:07:23;;;;;;;28.40;4.55;;;;;;;14.68;42.54;93671.63;5070165;28;20025;-75
2022/03/31 02:09:49;;;;;;;30.98;4.75;;;;;;;14.83;42.49;93686.50;5069332;28;20628;-75
2022/03/31 02:12:14;;;;;;;21.08;3.95;;;;;;;14.83;42.57;93682.06;5070875;28;20040;-75
2022/03/31 02:14:41;;;;;;;28.83;5.00;;;;;;;14.92;42.72;93675.75;5036021;28;20044;-75
2022/03/31 02:17:07;;;;;;;38.45;5.90;;;;;;;14.92;42.49;93677.56;5069859;28;20110;-75
2022/03/31 02:19:33;;;;;;;26.00;4.97;;;;;;;14.85;42.64;93656.56;5069673;28;20106;-75
2022/03/31 02:21:59;;;;;;;26.92;4.82;;;;;;;14.79;42.75;93656.47;5073814;28;20502;-75
2022/03/31 02:24:24;;;;;;;25.80;4.25;;;;;;;14.74;42.57;93621.22;5057045;28;20039;-75
2022/03/31 02:26:50;;;;;;;28.33;4.22;;;;;;;14.66;42.96;93621.31;5073786;28;20166;-75
2022/03/31 02:29:15;;;;;;;29.23;4.90;;;;;;;14.74;42.89;93629.06;5074733;28;20036;-75
2022/03/31 02:31:41;;;;;;;29.85;5.05;;;;;;;14.74;42.80;93629.06;5036261;28;20029;-75
2022/03/31 02:34:06;;;;;;;21.88;3.88;;;;;;;14.77;42.75;93620.06;5049139;28;20502;-73
2022/03/31 02:36:32;;;;;;;31.65;4.45;;;;;;;14.82;42.62;93619.50;5042199;28;20037;-73
2022/03/31 02:38:57;;;;;;;24.92;4.80;;;;;;;14.83;42.60;93608.06;5070601;28;20468;-75
2022/03/31 02:41:22;;;;;;;28.40;4.18;;;;;;;14.85;42.65;93621.75;5073354;28;20078;-75
2022/03/31 02:43:48;;;;;;;30.38;4.30;;;;;;;14.87;42.49;93580.56;5046230;28;20033;-75
2022/03/31 02:46:13;;;;;;;33.30;4.45;;;;;;;14.95;42.38;93599.56;5067892;28;20560;-75
2022/03/31 02:48:39;;;;;;;36.83;5.20;;;;;;;15.08;41.36;93592.88;5074622;28;20020;-76
2022/03/31 02:51:05;;;;;;;28.67;4.32;;;;;;;15.20;41.27;93613.13;5074609;28;20051;-76
2022/03/31 02:56:14;;;;;;;20.63;4.75;;;;;;;15.23;41.37;93614.56;5073234;28;20144;-76
2022/03/31 02:58:40;;;;;;;26.85;5.97;;;;;;;15.17;39.99;93608.25;5072944;28;20485;-75
2022/03/31 03:01:05;;;;;;;21.50;5.47;;;;;;;15.03;39.44;93632.63;5052503;28;20041;-76
2022/03/31 03:03:32;;;;;;;26.00;6.07;;;;;;;14.85;39.52;93624.34;5066484;28;20029;-75
2022/03/31 03:05:58;;;;;;;18.30;6.05;;;;;;;14.73;39.42;93626.63;5073193;28;20042;-75
2022/03/31 03:08:26;;;;;;;15.70;5.72;;;;;;;14.40;40.28;93615.69;5072895;28;20052;-75
2022/03/31 03:10:55;;;;;;;22.65;5.68;;;;;;;14.25;41.26;93597.38;5073203;28;20037;-75
2022/03/31 03:13:20;;;;;;;28.50;6.53;;;;;;;14.26;42.69;93607.69;5056031;28;20078;-75
2022/03/31 03:15:48;;;;;;;39.17;12.30;;;;;;;14.37;41.97;93589.91;5074132;28;20040;-75
2022/03/31 03:18:14;;;;;;;22.92;5.90;;;;;;;14.35;41.67;93599.72;5072650;28;20482;-75
2022/03/31 03:20:39;;;;;;;31.23;5.25;;;;;;;14.35;42.85;93591.91;5072847;28;20048;-75
2022/03/31 03:23:05;;;;;;;23.42;4.65;;;;;;;14.45;42.92;93589.84;5072466;28;20391;-75
2022/03/31 03:25:30;;;;;;;27.75;4.82;;;;;;;14.55;42.95;93608.72;5074267;28;20044;-75
2022/03/31 03:27:58;;;;;;;46.40;16.77;;;;;;;14.64;41.47;93610.22;5072650;28;20025;-74
2022/03/31 03:30:23;;;;;;;35.30;14.48;;;;;;;14.56;41.31;93580.75;5073467;28;20033;-75
2022/03/31 03:32:48;;;;;;;25.48;7.30;;;;;;;14.53;42.18;93584.56;5054491;28;20490;-75
2022/03/31 03:35:14;;;;;;;25.17;5.28;;;;;;;14.57;42.42;93587.59;5072635;28;20066;-75
2022/03/31 03:37:40;;;;;;;29.00;5.53;;;;;;;14.64;42.54;93606.81;5072523;28;20031;-75
2022/03/31 03:40:07;;;;;;;19.35;4.70;;;;;;;14.65;41.83;93583.09;5072275;28;20037;-75
2022/03/31 03:42:32;;;;;;;20.15;5.40;;;;;;;14.62;40.94;93575.63;5055284;28;20541;-75
2022/03/31 03:44:58;;;;;;;25.90;5.07;;;;;;;14.67;40.59;93594.19;5052840;28;20033;-75
2022/03/31 03:47:23;;;;;;;22.50;5.60;;;;;;;14.62;40.35;93601.75;5055548;28;20028;-75
2022/03/31 03:49:49;;;;;;;23.67;5.50;;;;;;;14.48;40.17;93590.28;5072185;28;20036;-75
2022/03/31 03:52:15;;;;;;;19.05;5.55;;;;;;;14.41;40.15;93599.03;5055261;28;20036;-75
2022/03/31 03:54:40;;;;;;;32.92;7.80;;;;;;;14.24;40.46;93586.13;5071776;28;20044;-75
2022/03/31 03:57:06;;;;;;;24.98;5.85;;;;;;;14.25;40.67;93600.81;5072256;28;20031;-75
2022/03/31 03:59:32;;;;;;;25.17;6.97;;;;;;;14.17;40.52;93594.84;5073238;28;20028;-75
2022/03/31 04:01:59;;;;;;;28.88;6.70;;;;;;;13.86;41.03;93599.22;5071436;28;20042;-75
2022/03/31 04:04:29;;;;;;;24.48;7.75;;;;;;;13.79;41.33;93598.31;5071544;28;20056;-75
2022/03/31 04:06:55;;;;;;;20.83;5.97;;;;;;;13.68;41.79;93601.34;5072277;28;20422;-75
2022/03/31 04:09:20;;;;;;;26.38;6.65;;;;;;;13.57;41.79;93613.00;5071755;28;20029;-75
2022/03/31 04:11:46;;;;;;;17.25;6.00;;;;;;;13.49;41.41;93602.59;5071505;28;20036;-75
2022/03/31 04:14:11;;;;;;;20.42;5.78;;;;;;;13.40;41.82;93619.31;5071453;28;20068;-75
2022/03/31 04:16:36;;;;;;;18.20;5.82;;;;;;;13.33;42.05;93634.00;5072552;28;21067;-75
2022/03/31 04:19:04;;;;;;;20.83;7.03;;;;;;;13.32;42.26;93640.22;5072945;28;20074;-75
2022/03/31 04:21:29;;;;;;;21.67;7.28;;;;;;;13.35;42.65;93639.88;5056402;28;20029;-75
2022/03/31 04:23:55;;;;;;;23.42;5.72;;;;;;;13.27;42.78;93648.56;5067905;28;20035;-75
2022/03/31 04:26:20;;;;;;;17.38;5.53;;;;;;;13.37;41.93;93646.56;5054847;28;20040;-75
2022/03/31 04:28:46;;;;;;;24.45;6.78;;;;;;;13.26;42.11;93646.94;5071356;28;20032;-75
2022/03/31 04:31:11;;;;;;;20.05;6.07;;;;;;;13.23;42.82;93646.41;5050870;28;20029;-75
2022/03/31 04:33:36;;;;;;;21.15;7.35;;;;;;;13.12;42.39;93643.22;5041762;28;20035;-75
2022/03/31 04:36:02;;;;;;;19.10;6.05;;;;;;;13.21;43.88;93657.03;5049514;28;20033;-75
2022/03/31 04:38:27;;;;;;;25.00;7.22;;;;;;;13.14;44.12;93667.31;5068999;28;20107;-75
2022/03/31 04:40:53;;;;;;;19.73;5.63;;;;;;;13.02;45.35;93663.47;5070947;28;20024;-75
2022/03/31 04:43:18;;;;;;;20.48;5.90;;;;;;;12.97;47.18;93650.94;5069730;28;20082;-75
2022/03/31 04:45:44;;;;;;;17.67;5.05;;;;;;;12.99;48.33;93647.38;5061094;28;20045;-75
2022/03/31 04:48:09;;;;;;;27.25;5.32;;;;;;;13.05;50.26;93646.69;5051199;28;20033;-75
2022/03/31 04:50:35;;;;;;;23.42;4.07;;;;;;;13.16;50.75;93654.13;5051382;28;20041;-75
2022/03/31 04:53:00;;;;;;;29.92;5.35;;;;;;;13.32;50.14;93664.50;5068615;28;20552;-75
2022/03/31 04:55:25;;;;;;;26.08;3.85;;;;;;;13.39;49.67;93675.06;5071129;28;20478;-75
2022/03/31 04:57:52;;;;;;;28.10;6.72;;;;;;;13.48;49.35;93663.56;5059766;28;20130;-75
2022/03/31 05:00:17;;;;;;;19.45;4.65;;;;;;;13.57;49.80;93700.91;5052329;28;20039;-76
2022/03/31 05:02:43;;;;;;;26.77;5.05;;;;;;;13.53;49.46;93676.13;5052218;28;20033;-75
2022/03/31 05:05:08;;;;;;;30.98;5.35;;;;;;;13.52;50.00;93666.69;5054391;28;20524;-76
2022/03/31 05:07:34;;;;;;;18.98;4.60;;;;;;;13.54;50.01;93664.69;5070484;28;20025;-75
2022/03/31 05:09:59;;;;;;;21.65;4.38;;;;;;;13.61;51.08;93655.19;5071969;28;20028;-75
2022/03/31 05:12:25;;;;;;;28.50;5.35;;;;;;;13.61;50.13;93640.34;5053536;28;20035;-75
2022/03/31 05:14:51;;;;;;;24.48;4.18;;;;;;;13.67;49.37;93649.28;5070869;28;20411;-75
2022/03/31 05:17:16;;;;;;;25.85;4.85;;;;;;;13.71;49.06;93645.34;5070319;28;20036;-75
2022/03/31 05:19:42;;;;;;;22.92;4.50;;;;;;;13.66;49.31;93660.72;5070520;28;20033;-76
2022/03/31 05:22:07;;;;;;;22.27;5.13;;;;;;;13.60;49.74;93692.72;5033247;28;20025;-76
2022/03/31 05:24:32;;;;;;;14.00;5.05;;;;;;;13.33;49.48;93670.53;5033603;28;20044;-75
2022/03/31 05:26:58;;;;;;;22.80;5.55;;;;;;;13.13;49.38;93680.53;5050354;28;20418;-76
2022/03/31 05:29:24;;;;;;;14.88;4.97;;;;;;;13.14;49.40;93680.34;5050383;28;20025;-75
2022/03/31 05:31:50;;;;;;;22.73;6.22;;;;;;;13.11;49.64;93688.53;5069950;28;20037;-76
2022/03/31 05:34:15;;;;;;;26.90;6.05;;;;;;;13.06;49.45;93710.88;5053912;28;20024;-75
2022/03/31 05:36:41;;;;;;;15.80;5.05;;;;;;;13.02;49.79;93697.38;5070389;28;20055;-75
2022/03/31 05:39:06;;;;;;;19.92;5.35;;;;;;;13.06;50.72;93697.84;5063143;28;20039;-75
2022/03/31 05:41:32;;;;;;;16.17;5.45;;;;;;;12.92;50.70;93704.56;5050355;28;20033;-75
2022/03/31 05:43:57;;;;;;;20.60;6.55;;;;;;;12.95;51.06;93702.44;5051410;28;20033;-75
2022/03/31 05:46:23;;;;;;;18.50;5.90;;;;;;;12.89;52.59;93718.72;5050266;28;20526;-74
2022/03/31 05:48:48;;;;;;;21.60;6.72;;;;;;;12.78;52.60;93703.47;5050127;28;20029;-75
2022/03/31 05:51:14;;;;;;;23.38;10.63;;;;;;;12.75;52.61;93702.00;5050423;28;20040;-75
2022/03/31 05:53:40;;;;;;;17.20;7.40;;;;;;;12.61;52.09;93699.28;5061273;28;20025;-75
2022/03/31 05:56:06;;;;;;;26.77;6.70;;;;;;;12.56;52.79;93672.91;5061111;28;20021;-75
2022/03/31 05:58:32;;;;;;;28.88;6.40;;;;;;;12.60;53.30;93667.22;5060991;28;20023;-75
2022/03/31 06:00:58;;;;;;;27.85;5.30;;;;;;;12.65;53.37;93651.09;5058200;28;20032;-75
2022/03/31 06:03:24;;;;;;;23.55;4.85;;;;;;;12.58;53.77;93648.31;5059863;28;20016;-75
2022/03/31 06:05:50;;;;;;;33.10;5.95;;;;;;;12.73;52.07;93658.84;5057036;28;20039;-75
2022/03/31 06:08:17;;;;;;;21.23;4.80;;;;;;;12.90;51.76;93665.66;5045989;28;20448;-75
2022/03/31 06:10:45;;;;;;;32.90;5.47;;;;;;;12.98;51.56;93677.81;5044257;28;20120;-75
2022/03/31 06:13:11;;;;;;;28.17;5.60;;;;;;;13.05;51.72;93680.56;5051056;28;20041;-75
2022/03/31 06:15:38;;;;;;;28.60;5.43;;;;;;;13.07;51.61;93665.59;5058212;28;20048;-73
2022/03/31 06:18:04;;;;;;;29.30;5.35;;;;;;;13.15;51.36;93653.31;5049158;28;20040;-73
2022/03/31 06:20:31;;;;;;;28.85;5.03;;;;;;;13.15;51.24;93629.03;5048832;28;20085;-78
2022/03/31 06:22:57;;;;;;;19.67;4.80;;;;;;;13.33;47.80;93645.25;5052294;28;20036;-76
2022/03/31 06:25:22;;;;;;;27.67;5.60;;;;;;;13.34;48.36;93664.31;5070890;28;20047;-78
2022/03/31 06:27:48;;;;;;;22.08;5.65;;;;;;;13.29;49.57;93654.41;5052762;28;20020;-78
2022/03/31 06:30:13;;;;;;;20.95;5.80;;;;;;;13.32;49.83;93667.13;5070010;28;20090;-69
2022/03/31 06:32:39;;;;;;;32.28;7.45;;;;;;;13.10;49.44;93645.19;5070643;28;20468;-70
2022/03/31 06:35:05;;;;;;;24.98;7.93;;;;;;;13.18;50.02;93667.81;5069411;28;20040;-69
2022/03/31 06:37:30;;;;;;;24.35;6.70;;;;;;;13.18;49.43;93675.63;5069341;28;20044;-71
2022/03/31 06:39:56;;;;;;;19.05;5.85;;;;;;;13.23;49.78;93688.94;5069282;28;20401;-72
2022/03/31 06:42:21;;;;;;;24.80;5.75;;;;;;;13.21;49.02;93683.13;5045842;28;20655;-71
2022/03/31 06:44:47;;;;;;;15.52;5.10;;;;;;;13.29;49.18;93690.94;5046588;28;20064;-71
2022/03/31 06:47:12;;;;;;;17.67;6.13;;;;;;;13.35;48.35;93694.66;5045082;28;20037;-71
2022/03/31 06:49:37;;;;;;;19.17;6.22;;;;;;;13.38;49.14;93694.31;5044042;28;20033;-71
2022/03/31 06:52:03;;;;;;;14.35;5.72;;;;;;;13.43;48.83;93686.78;5047093;28;20498;-71
2022/03/31 06:54:30;;;;;;;21.83;5.70;;;;;;;13.50;50.00;93681.69;5060572;28;20561;-71
2022/03/31 06:56:56;;;;;;;18.58;5.72;;;;;;;13.50;49.60;93682.50;5066619;28;20043;-72
2022/03/31 06:59:21;;;;;;;25.75;6.68;;;;;;;13.50;48.92;93684.28;5047125;28;20410;-72
2022/03/31 07:01:48;;;;;;;22.20;6.10;;;;;;;13.49;49.21;93691.31;5062710;28;20040;-72
2022/03/31 07:04:14;;;;;;;20.20;5.38;;;;;;;13.54;49.10;93672.50;5058417;28;20055;-72
2022/03/31 07:06:40;;;;;;;22.88;5.20;;;;;;;13.46;47.93;93683.81;5047809;28;20037;-71
2022/03/31 07:09:06;;;;;;;20.35;7.15;;;;;;;13.55;48.19;93684.59;5055663;28;20033;-71
2022/03/31 07:11:32;;;;;;;15.70;5.78;;;;;;;13.55;49.19;93681.97;5047708;28;20055;-72
2022/03/31 07:14:01;;;;;;;27.73;6.28;;;;;;;13.60;47.96;93685.69;5052324;28;20125;-72
2022/03/31 07:16:27;;;;;;;28.35;5.82;;;;;;;13.68;47.58;93671.78;5061521;28;20513;-72
2022/03/31 07:18:52;;;;;;;23.80;5.82;;;;;;;13.70;47.85;93663.78;5068457;28;20071;-72
2022/03/31 07:21:18;;;;;;;23.90;4.78;;;;;;;13.67;47.66;93666.72;5070360;28;20465;-72
2022/03/31 07:23:47;;;;;;;15.70;4.80;;;;;;;13.72;47.52;93678.28;5053036;28;20032;-72
2022/03/31 07:26:13;;;;;;;20.35;5.05;;;;;;;13.74;48.07;93657.25;5060563;28;20029;-71
2022/03/31 07:28:38;;;;;;;18.55;6.32;;;;;;;13.62;48.46;93655.03;5065148;28;20024;-71
2022/03/31 07:31:03;;;;;;;23.23;6.18;;;;;;;13.57;49.05;93661.75;5057233;28;20187;-72
2022/03/31 07:33:29;;;;;;;22.23;5.63;;;;;;;13.71;48.46;93661.00;5050646;28;20033;-71
2022/03/31 07:35:54;;;;;;;19.95;5.07;;;;;;;13.70;48.25;93646.31;5052357;28;20044;-71
2022/03/31 07:38:20;;;;;;;22.75;5.00;;;;;;;13.80;48.93;93667.78;5060213;28;20025;-71
2022/03/31 07:40:45;;;;;;;25.27;5.65;;;;;;;13.90;48.89;93664.94;5053247;28;20040;-72
2022/03/31 07:43:11;;;;;;;22.15;6.10;;;;;;;13.97;48.35;93672.88;5034753;28;20021;-72
2022/03/31 07:45:36;;;;;;;20.42;5.05;;;;;;;14.09;48.09;93667.06;5056816;28;20515;-72
2022/03/31 07:48:03;;;;;;;20.30;4.82;;;;;;;14.14;48.00;93645.66;5058765;28;20402;-72
2022/03/31 07:50:29;;;;;;;21.83;4.63;;;;;;;14.19;47.33;93651.16;5051325;28;20051;-72
2022/03/31 07:52:54;;;;;;;24.48;4.80;;;;;;;14.20;47.42;93644.94;5052183;28;20044;-71
2022/03/31 07:55:19;;;;;;;20.40;4.53;;;;;;;14.23;47.36;93662.84;5066616;28;20040;-72
2022/03/31 07:57:45;;;;;;;19.73;5.13;;;;;;;14.20;47.22;93663.22;5063147;28;20021;-71
2022/03/31 08:00:12;;;;;;;23.40;6.10;;;;;;;14.26;46.95;93653.84;5049778;28;20041;-72
2022/03/31 08:02:41;;;;;;;19.98;5.22;;;;;;;14.25;47.52;93650.44;5055235;28;20077;-71
2022/03/31 08:05:09;;;;;;;19.08;5.43;;;;;;;14.32;47.16;93650.56;5048978;28;20493;-71
2022/03/31 08:07:35;;;;;;;21.88;5.45;;;;;;;14.42;47.42;93645.06;5065734;28;20024;-73
2022/03/31 08:10:01;;;;;;;21.95;4.38;;;;;;;14.31;47.28;93628.81;5053839;28;20406;-73
2022/03/31 08:12:26;;;;;;;23.73;5.75;;;;;;;14.56;46.98;93667.00;5058689;28;20024;-73
2022/03/31 08:14:51;;;;;;;22.38;5.25;;;;;;;14.59;47.15;93657.00;5068550;28;20060;-73
2022/03/31 08:17:17;;;;;;;22.17;5.18;;;;;;;14.64;46.98;93644.19;5048789;28;20498;-73
2022/03/31 08:19:43;;;;;;;21.33;4.65;;;;;;;14.82;46.36;93651.69;5048067;28;20045;-73
2022/03/31 08:22:09;;;;;;;25.30;5.22;;;;;;;14.88;46.30;93658.81;5052612;28;20021;-73
2022/03/31 08:24:34;;;;;;;19.73;4.05;;;;;;;14.84;46.35;93643.66;5054849;28;20028;-73
2022/03/31 08:27:00;;;;;;;23.85;4.88;;;;;;;14.91;46.31;93626.28;5048284;28;20063;-73
2022/03/31 08:29:25;;;;;;;26.52;4.68;;;;;;;14.99;46.09;93636.63;5065866;28;20021;-73
2022/03/31 08:31:52;;;;;;;18.02;4.90;;;;;;;14.97;46.19;93613.25;5051079;28;20028;-73
2022/03/31 08:34:17;;;;;;;32.00;5.22;;;;;;;15.06;46.20;93631.47;5030056;28;20452;-74
2022/03/31 08:36:43;;;;;;;22.42;4.35;;;;;;;15.10;45.67;93627.47;5048256;28;20028;-73
2022/03/31 08:39:08;;;;;;;21.42;5.55;;;;;;;15.05;45.64;93625.44;5067718;28;20021;-72
2022/03/31 08:41:33;;;;;;;19.73;4.60;;;;;;;15.10;45.35;93622.25;5056768;28;20041;-72
2022/03/31 08:43:59;;;;;;;22.23;4.82;;;;;;;15.14;45.23;93628.75;5048488;28;20025;-73
2022/03/31 08:46:32;;;;;;;19.58;5.13;;;;;;;15.22;45.35;93620.00;5025558;28;20123;-73
2022/03/31 08:48:57;;;;;;;20.25;4.75;;;;;;;15.19;45.26;93627.22;5046338;28;20556;-72
2022/03/31 08:51:24;;;;;;;19.20;4.50;;;;;;;15.28;45.10;93634.94;5022416;28;20032;-73
2022/03/31 08:53:50;;;;;;;19.80;4.50;;;;;;;15.30;45.17;93618.06;5058318;28;20061;-73
2022/03/31 08:56:16;;;;;;;28.27;5.25;;;;;;;15.32;45.46;93628.34;5069605;28;20060;-73
2022/03/31 08:58:45;;;;;;;20.63;4.82;;;;;;;15.41;45.46;93629.88;5053611;28;20295;-74
2022/03/31 09:01:14;;;;;;;22.02;5.13;;;;;;;15.45;45.31;93599.69;5048795;28;20037;-73
2022/03/31 09:03:39;;;;;;;21.90;5.50;;;;;;;15.51;45.25;93609.41;5056432;28;20460;-78
2022/03/31 09:06:07;;;;;;;17.85;4.15;;;;;;;15.56;45.17;93606.25;5031903;28;20037;-74
2022/03/31 09:08:33;;;;;;;20.13;4.47;;;;;;;15.63;45.19;93604.53;5047265;28;20029;-74
2022/03/31 09:11:00;;;;;;;20.48;3.95;;;;;;;15.77;44.38;93598.44;5032845;28;20064;-74
2022/03/31 09:13:29;;;;;;;19.73;5.18;;;;;;;15.79;44.65;93604.28;5048808;28;20140;-73
2022/03/31 09:16:01;;;;;;;22.48;4.25;;;;;;;15.85;44.23;93593.06;5052017;28;20153;-73
2022/03/31 09:18:27;;;;;;;23.52;4.22;;;;;;;15.96;43.96;93601.41;5041070;28;20350;-73
2022/03/31 09:20:55;;;;;;;20.25;3.95;;;;;;;16.05;43.78;93595.03;5038283;28;20037;-73
2022/03/31 09:23:22;;;;;;;26.25;4.93;;;;;;;16.13;44.17;93599.31;5062453;28;20024;-73
2022/03/31 09:25:50;;;;;;;20.50;4.57;;;;;;;16.22;43.77;93616.53;5045558;28;20049;-73
2022/03/31 09:28:23;;;;;;;27.40;5.00;;;;;;;16.28;43.43;93605.28;5057629;28;20039;-74
2022/03/31 09:30:55;;;;;;;26.20;5.55;;;;;;;16.26;43.46;93587.13;5065560;28;20044;-73
2022/03/31 09:33:34;;;;;;;23.83;4.32;;;;;;;16.21;43.97;93563.31;5050315;28;20029;-73
2022/03/31 09:36:05;;;;;;;20.05;4.30;;;;;;;16.43;43.64;93565.84;5030803;28;20036;-73
2022/03/31 09:38:41;;;;;;;25.40;4.80;;;;;;;16.54;43.19;93558.25;5043388;28;20506;-73
2022/03/31 09:41:23;;;;;;;22.23;5.05;;;;;;;16.64;43.36;93567.59;5057780;28;20108;-73
2022/03/31 09:43:49;;;;;;;22.20;4.40;;;;;;;16.74;42.77;93544.44;5063460;28;20058;-73
2022/03/31 09:46:22;;;;;;;25.40;4.03;;;;;;;16.86;42.51;93563.91;5049717;28;20047;-74
2022/03/31 09:48:49;;;;;;;23.95;3.53;;;;;;;16.86;42.18;93540.28;5064219;28;20048;-74
2022/03/31 09:51:15;;;;;;;22.05;4.80;;;;;;;17.04;42.66;93562.53;5031026;28;20108;-74
2022/03/31 09:53:40;;;;;;;18.35;3.60;;;;;;;17.17;42.10;93570.47;5017145;28;20029;-74
2022/03/31 09:56:06;;;;;;;21.17;4.28;;;;;;;17.24;41.81;93576.53;5046404;28;20406;-74
2022/03/31 09:58:33;;;;;;;23.95;4.22;;;;;;;17.35;41.32;93557.56;5047051;28;20367;-74
2022/03/31 10:00:58;;;;;;;25.77;4.15;;;;;;;17.41;41.61;93562.06;5029415;28;20037;-74
2022/03/31 10:03:24;;;;;;;26.02;4.40;;;;;;;17.42;41.15;93561.03;5053928;28;20395;-73
2022/03/31 10:05:51;;;;;;;17.40;5.00;;;;;;;17.46;41.42;93547.50;5049447;28;20052;-74
2022/03/31 10:08:16;;;;;;;28.67;4.72;;;;;;;17.48;40.84;93529.75;5059646;28;20505;-74
2022/03/31 10:10:43;;;;;;;24.70;4.28;;;;;;;17.40;41.00;93547.28;5033506;28;20033;-74
2022/03/31 10:13:17;;;;;;;24.58;4.47;;;;;;;17.41;41.31;93554.19;5067581;28;20052;-74
2022/03/31 10:15:43;;;;;;;21.63;4.18;;;;;;;17.47;41.12;93578.00;5053284;28;20033;-74
2022/03/31 10:18:12;;;;;;;24.35;3.75;;;;;;;17.49;41.46;93533.97;5046313;28;20119;-73
2022/03/31 10:20:37;;;;;;;21.88;4.20;;;;;;;17.57;40.96;93534.59;5048014;28;20032;-74
2022/03/31 10:25:47;;;;;;;23.27;4.72;;;;;;;17.72;40.61;93518.66;5062355;28;20098;-74
2022/03/31 10:28:16;;;;;;;20.05;5.07;;;;;;;17.76;40.23;93516.44;5060241;28;20511;-73
2022/03/31 10:30:54;;;;;;;33.05;4.18;;;;;;;17.80;40.11;93513.25;5040868;28;20506;-73
2022/03/31 10:33:27;;;;;;;21.90;4.88;;;;;;;17.85;40.46;93512.63;5047793;28;20033;-74
2022/03/31 10:36:04;;;;;;;28.27;4.20;;;;;;;17.90;40.33;93501.50;5038479;28;20040;-74
2022/03/31 10:38:33;;;;;;;24.90;4.18;;;;;;;17.94;39.93;93510.59;5062492;28;20138;-74
2022/03/31 10:41:05;;;;;;;22.65;3.92;;;;;;;18.00;39.83;93494.03;5031359;28;20114;-74
2022/03/31 10:43:32;;;;;;;21.77;3.80;;;;;;;18.12;39.90;93492.38;5041953;28;20572;-74
2022/03/31 10:46:00;;;;;;;20.52;3.88;;;;;;;18.15;39.63;93486.72;5049181;28;20032;-74
2022/03/31 10:48:29;;;;;;;19.75;4.10;;;;;;;18.03;39.64;93462.09;5054954;28;20032;-74
2022/03/31 10:51:11;;;;;;;26.27;4.40;;;;;;;18.10;39.48;93470.75;5052257;28;20545;-74
2022/03/31 10:53:39;;;;;;;26.80;4.65;;;;;;;18.08;40.06;93478.06;5055786;28;20445;-74
2022/03/31 10:56:24;;;;;;;20.83;5.20;;;;;;;18.02;40.18;93486.75;5042336;28;20040;-74
2022/03/31 10:58:50;;;;;;;33.20;5.95;;;;;;;18.08;40.01;93460.47;5051619;28;20078;-74
2022/03/31 11:01:16;;;;;;;25.35;4.90;;;;;;;18.19;39.94;93479.22;5053977;28;20083;-74
2022/03/31 11:03:42;;;;;;;32.45;5.25;;;;;;;18.21;40.66;93478.00;5069795;28;20103;-75
2022/03/31 11:06:11;;;;;;;24.67;4.97;;;;;;;18.16;39.91;93477.81;5053280;28;20037;-74
2022/03/31 11:08:54;;;;;;;29.15;5.63;;;;;;;18.27;39.52;93492.94;5053162;28;20024;-74
2022/03/31 11:11:29;;;;;;;22.88;4.63;;;;;;;18.35;39.89;93462.22;5032549;28;20045;-74
2022/03/31 11:13:57;;;;;;;28.20;6.10;;;;;;;18.48;39.73;93478.75;5049509;28;20063;-74
2022/03/31 11:16:29;;;;;;;27.63;7.88;;;;;;;18.51;39.56;93514.34;5053058;28;20040;-74
2022/03/31 11:18:55;;;;;;;26.38;5.10;;;;;;;18.52;38.89;93481.75;5034404;28;20425;-74
2022/03/31 11:21:21;;;;;;;17.75;3.50;;;;;;;18.55;38.60;93457.69;5070549;28;20028;-74
2022/03/31 11:23:47;;;;;;;26.95;5.07;;;;;;;18.66;39.90;93461.47;5033683;28;20453;-74
2022/03/31 11:26:16;;;;;;;15.65;3.95;;;;;;;18.77;39.59;93454.78;5050973;28;20037;-74